createdAt,value
2023-03-26T00:01:40.474Z,5.57
2023-03-26T00:04:07.500Z,5.90
2023-03-26T00:06:38.872Z,6.90
2023-03-26T00:09:10.521Z,6.95
2023-03-26T00:11:37.425Z,8.27
2023-03-26T00:14:05.427Z,7.28
2023-03-26T00:16:32.648Z,6.85
2023-03-26T00:19:00.028Z,5.95
2023-03-26T00:21:28.197Z,6.90
2023-03-26T00:24:04.833Z,7.00
2023-03-26T00:26:35.292Z,6.15
2023-03-26T00:29:03.668Z,7.57
2023-03-26T00:31:30.856Z,5.72
2023-03-26T00:33:57.767Z,8.27
2023-03-26T00:36:27.850Z,6.82
2023-03-26T00:38:54.778Z,6.70
2023-03-26T00:41:31.050Z,6.97
2023-03-26T00:43:58.751Z,6.90
2023-03-26T00:46:26.268Z,7.93
2023-03-26T00:48:53.178Z,8.73
2023-03-26T00:51:20.770Z,7.93
2023-03-26T00:53:48.331Z,7.78
2023-03-26T00:56:15.200Z,8.45
2023-03-26T00:58:42.160Z,8.82
2023-03-26T01:01:14.330Z,5.75
2023-03-26T01:03:44.260Z,6.32
2023-03-26T01:06:19.785Z,7.18
2023-03-26T01:08:50.554Z,8.15
2023-03-26T01:11:25.932Z,7.55
2023-03-26T01:14:13.624Z,5.45
2023-03-26T01:16:49.885Z,7.70
2023-03-26T01:19:25.834Z,9.15
2023-03-26T01:21:52.723Z,6.90
2023-03-26T01:24:19.524Z,6.68
2023-03-26T01:26:49.109Z,6.20
2023-03-26T01:29:39.508Z,7.10
2023-03-26T01:32:40.996Z,7.05
2023-03-26T01:35:12.474Z,6.57
2023-03-26T01:38:11.348Z,5.65
2023-03-26T01:40:47.141Z,6.55
2023-03-26T01:43:33.186Z,6.20
2023-03-26T01:46:01.333Z,6.75
2023-03-26T01:48:33.747Z,6.15
2023-03-26T01:51:00.589Z,6.70
2023-03-26T01:53:27.494Z,7.13
2023-03-26T01:55:56.123Z,6.55
2023-03-26T01:58:51.227Z,5.97
2023-03-26T02:01:24.621Z,6.80
2023-03-26T02:03:55.480Z,5.22
2023-03-26T02:06:58.634Z,5.22
2023-03-26T02:09:27.603Z,6.35
2023-03-26T02:11:54.352Z,6.20
2023-03-26T02:14:21.110Z,5.88
2023-03-26T02:16:47.946Z,7.43
2023-03-26T02:19:21.938Z,6.05
2023-03-26T02:21:51.676Z,6.78
2023-03-26T02:24:19.291Z,5.65
2023-03-26T02:26:46.189Z,4.32
2023-03-26T02:29:14.006Z,4.97
2023-03-26T02:31:41.086Z,3.85
2023-03-26T02:34:07.929Z,5.15
2023-03-26T02:36:36.031Z,5.43
2023-03-26T02:39:03.524Z,6.45
2023-03-26T02:41:30.433Z,4.93
2023-03-26T02:43:57.197Z,5.93
2023-03-26T02:46:24.024Z,5.25
2023-03-26T02:48:50.981Z,4.68
2023-03-26T02:51:18.334Z,5.05
2023-03-26T02:53:45.799Z,3.78
2023-03-26T02:56:12.625Z,4.90
2023-03-26T02:58:39.434Z,3.85
2023-03-26T03:01:06.629Z,6.18
2023-03-26T03:03:34.597Z,4.35
2023-03-26T03:06:01.459Z,3.50
2023-03-26T03:08:29.262Z,3.97
2023-03-26T03:10:59.264Z,3.67
2023-03-26T03:13:26.341Z,3.05
2023-03-26T03:15:53.440Z,4.95
2023-03-26T03:18:20.473Z,3.17
2023-03-26T03:20:47.302Z,3.90
2023-03-26T03:23:14.224Z,2.85
2023-03-26T03:25:43.728Z,3.25
2023-03-26T03:28:11.180Z,2.47
2023-03-26T03:30:37.998Z,4.05
2023-03-26T03:33:06.139Z,2.80
2023-03-26T03:35:33.726Z,3.25
2023-03-26T03:38:00.935Z,4.00
2023-03-26T03:40:27.812Z,2.65
2023-03-26T03:42:54.728Z,2.60
2023-03-26T03:45:21.566Z,3.42
2023-03-26T03:47:48.526Z,3.38
2023-03-26T03:50:15.596Z,2.50
2023-03-26T03:52:42.379Z,2.72
2023-03-26T03:55:10.649Z,2.60
2023-03-26T03:57:37.539Z,2.55
2023-03-26T04:00:06.745Z,3.08
2023-03-26T04:02:35.183Z,2.55
2023-03-26T04:05:02.887Z,3.88
2023-03-26T04:07:33.246Z,3.10
2023-03-26T04:10:00.483Z,2.30
2023-03-26T04:12:28.449Z,2.20
2023-03-26T04:14:55.849Z,1.38
2023-03-26T04:17:23.036Z,2.35
2023-03-26T04:19:52.906Z,1.50
2023-03-26T04:22:19.941Z,1.58
2023-03-26T04:24:48.845Z,1.75
2023-03-26T04:27:17.812Z,1.42
2023-03-26T04:29:46.144Z,1.08
2023-03-26T04:32:26.558Z,1.60
2023-03-26T04:34:53.805Z,1.42
2023-03-26T04:37:26.596Z,1.17
2023-03-26T04:39:55.059Z,1.05
2023-03-26T04:42:22.361Z,1.33
2023-03-26T04:44:50.850Z,0.90
2023-03-26T04:47:18.362Z,1.20
2023-03-26T04:49:47.364Z,1.98
2023-03-26T04:52:14.470Z,2.00
2023-03-26T04:54:43.726Z,1.20
2023-03-26T04:57:18.472Z,1.00
2023-03-26T04:59:45.313Z,1.20
2023-03-26T05:02:13.047Z,1.30
2023-03-26T05:04:40.008Z,1.20
2023-03-26T05:07:07.473Z,1.23
2023-03-26T05:09:34.197Z,1.10
2023-03-26T05:12:01.142Z,1.35
2023-03-26T05:14:28.133Z,0.90
2023-03-26T05:16:55.068Z,1.45
2023-03-26T05:19:22.401Z,0.95
2023-03-26T05:21:49.172Z,0.75
2023-03-26T05:24:16.191Z,1.58
2023-03-26T05:26:43.286Z,1.27
2023-03-26T05:29:10.071Z,1.35
2023-03-26T05:31:37.909Z,0.98
2023-03-26T05:34:04.693Z,1.73
2023-03-26T05:36:31.487Z,0.90
2023-03-26T05:38:58.298Z,0.80
2023-03-26T05:41:25.416Z,1.40
2023-03-26T05:43:52.152Z,0.98
2023-03-26T05:46:20.393Z,1.08
2023-03-26T05:48:47.309Z,1.10
2023-03-26T05:51:15.681Z,1.00
2023-03-26T05:53:42.613Z,1.00
2023-03-26T05:56:09.645Z,0.70
2023-03-26T05:58:36.664Z,1.20
2023-03-26T06:01:05.783Z,0.85
2023-03-26T06:03:33.296Z,1.33
2023-03-26T06:06:00.486Z,1.10
2023-03-26T06:08:27.369Z,1.85
2023-03-26T06:11:01.146Z,1.20
2023-03-26T06:13:27.981Z,1.48
2023-03-26T06:15:54.899Z,1.00
2023-03-26T06:18:23.007Z,1.00
2023-03-26T06:20:49.916Z,1.52
2023-03-26T06:23:16.984Z,1.20
2023-03-26T06:25:45.626Z,0.90
2023-03-26T06:28:12.893Z,1.60
2023-03-26T06:30:40.207Z,1.50
2023-03-26T06:33:07.348Z,2.03
2023-03-26T06:35:34.196Z,1.10
2023-03-26T06:38:01.110Z,0.95
2023-03-26T06:40:28.981Z,1.20
2023-03-26T06:43:09.892Z,1.08
2023-03-26T06:45:37.480Z,1.40
2023-03-26T06:48:04.622Z,1.17
2023-03-26T06:50:32.306Z,1.27
2023-03-26T06:52:59.144Z,1.58
2023-03-26T06:55:25.992Z,1.15
2023-03-26T06:57:53.526Z,1.20
2023-03-26T07:00:21.194Z,1.08
2023-03-26T07:02:48.124Z,1.70
2023-03-26T07:05:15.677Z,0.70
2023-03-26T07:07:46.236Z,0.80
2023-03-26T07:10:14.286Z,1.40
2023-03-26T07:12:42.472Z,0.95
2023-03-26T07:15:10.437Z,1.20
2023-03-26T07:17:37.441Z,1.55
2023-03-26T07:20:05.810Z,0.88
2023-03-26T07:22:32.961Z,0.55
2023-03-26T07:24:59.955Z,0.80
2023-03-26T07:27:44.961Z,0.60
2023-03-26T07:30:17.239Z,0.57
2023-03-26T07:32:54.032Z,0.60
2023-03-26T07:35:22.637Z,0.63
2023-03-26T07:38:08.303Z,0.98
2023-03-26T07:40:47.042Z,0.60
2023-03-26T07:43:23.102Z,0.90
2023-03-26T07:45:50.450Z,0.90
2023-03-26T07:48:19.104Z,0.95
2023-03-26T07:50:46.384Z,1.10
2023-03-26T07:53:13.638Z,1.15
2023-03-26T07:55:57.524Z,1.33
2023-03-26T07:58:48.987Z,1.95
2023-03-26T08:01:38.354Z,1.45
2023-03-26T08:04:34.931Z,1.17
2023-03-26T08:07:28.725Z,1.70
2023-03-26T08:10:28.325Z,1.67
2023-03-26T08:15:32.646Z,1.63
2023-03-26T08:18:27.319Z,1.95
2023-03-26T08:21:11.301Z,1.30
2023-03-26T08:24:00.180Z,1.77
2023-03-26T08:26:58.387Z,1.10
2023-03-26T08:29:45.326Z,1.05
2023-03-26T08:32:18.542Z,1.58
2023-03-26T08:34:46.196Z,1.33
2023-03-26T08:37:13.189Z,0.90
2023-03-26T08:39:42.076Z,1.00
2023-03-26T08:42:46.208Z,1.05
2023-03-26T08:45:31.377Z,1.50
2023-03-26T08:48:29.820Z,1.30
2023-03-26T08:51:17.021Z,1.00
2023-03-26T08:54:03.475Z,1.20
2023-03-26T08:56:43.737Z,0.88
2023-03-26T08:59:35.354Z,1.15
2023-03-26T09:02:17.152Z,1.17
2023-03-26T09:05:05.760Z,1.00
2023-03-26T09:07:41.306Z,1.52
2023-03-26T09:10:46.190Z,0.98
2023-03-26T09:13:31.849Z,1.00
2023-03-26T09:16:21.985Z,1.00
2023-03-26T09:19:12.813Z,0.90
2023-03-26T09:21:48.870Z,0.85
2023-03-26T09:24:41.041Z,1.10
2023-03-26T09:27:27.540Z,1.20
2023-03-26T09:30:36.313Z,1.20
2023-03-26T09:33:28.166Z,1.10
2023-03-26T09:36:19.789Z,1.15
2023-03-26T09:39:08.791Z,1.20
2023-03-26T09:42:13.173Z,1.00
2023-03-26T09:45:00.152Z,1.20
2023-03-26T09:47:55.329Z,1.38
2023-03-26T09:50:29.991Z,1.30
2023-03-26T09:53:34.323Z,1.10
2023-03-26T09:56:10.649Z,1.20
2023-03-26T09:58:56.913Z,1.45
2023-03-26T10:01:32.126Z,1.60
2023-03-26T10:03:59.021Z,1.40
2023-03-26T10:06:44.480Z,1.30
2023-03-26T10:09:18.353Z,1.55
2023-03-26T10:11:55.535Z,1.70
2023-03-26T10:14:34.761Z,1.80
2023-03-26T10:17:10.691Z,2.00
2023-03-26T10:19:46.323Z,1.92
2023-03-26T10:22:20.866Z,2.65
2023-03-26T10:25:02.761Z,2.60
2023-03-26T10:28:09.616Z,1.98
2023-03-26T10:30:45.734Z,1.95
2023-03-26T10:33:16.853Z,2.50
2023-03-26T10:36:08.483Z,1.90
2023-03-26T10:38:51.527Z,1.80
2023-03-26T10:41:35.520Z,1.60
2023-03-26T10:44:36.414Z,1.90
2023-03-26T10:47:15.269Z,3.15
2023-03-26T10:50:31.515Z,1.90
2023-03-26T10:53:07.186Z,1.60
2023-03-26T10:55:47.376Z,1.42
2023-03-26T10:58:19.203Z,1.50
2023-03-26T11:00:59.229Z,1.48
2023-03-26T11:03:54.834Z,1.83
2023-03-26T11:06:30.303Z,1.70
2023-03-26T11:09:08.146Z,1.35
2023-03-26T11:11:49.234Z,1.85
2023-03-26T11:14:34.470Z,1.50
2023-03-26T11:17:40.963Z,1.40
2023-03-26T11:20:21.502Z,1.13
2023-03-26T11:23:08.639Z,1.10
2023-03-26T11:25:38.894Z,1.20
2023-03-26T11:28:27.358Z,1.15
2023-03-26T11:31:00.623Z,1.15
2023-03-26T11:33:32.800Z,2.10
2023-03-26T11:36:03.061Z,1.10
2023-03-26T11:38:37.291Z,1.30
2023-03-26T11:41:04.827Z,1.42
2023-03-26T11:43:35.104Z,1.30
2023-03-26T11:46:07.443Z,1.08
2023-03-26T11:48:36.081Z,1.15
2023-03-26T11:51:07.473Z,1.10
2023-03-26T11:53:38.536Z,1.20
2023-03-26T11:56:14.965Z,1.23
2023-03-26T11:59:06.313Z,1.40
2023-03-26T12:01:50.403Z,1.13
2023-03-26T12:04:29.242Z,1.02
2023-03-26T12:06:59.708Z,0.90
2023-03-26T12:09:27.017Z,1.05
2023-03-26T12:11:57.115Z,1.00
2023-03-26T12:14:26.172Z,1.10
2023-03-26T12:17:11.881Z,1.00
2023-03-26T12:19:43.769Z,1.20
2023-03-26T12:22:36.270Z,0.80
2023-03-26T12:25:16.142Z,1.25
2023-03-26T12:27:49.754Z,1.17
2023-03-26T12:30:23.785Z,1.10
2023-03-26T12:32:53.049Z,1.02
2023-03-26T12:35:27.416Z,0.93
2023-03-26T12:37:55.072Z,1.10
2023-03-26T12:40:32.620Z,1.10
2023-03-26T12:44:55.186Z,1.50
2023-03-26T12:47:26.413Z,1.50
2023-03-26T12:48:41.629Z,1.50
2023-03-26T12:51:35.994Z,1.77
2023-03-26T12:54:24.822Z,1.92
2023-03-26T12:57:11.717Z,2.75
2023-03-26T12:59:58.832Z,2.92
2023-03-26T13:02:50.639Z,3.75
2023-03-26T13:05:48.924Z,3.30
2023-03-26T13:08:15.730Z,3.33
2023-03-26T13:11:29.785Z,2.97
2023-03-26T13:14:33.416Z,2.67
2023-03-26T13:17:37.170Z,3.45
2023-03-26T13:20:14.513Z,3.90
2023-03-26T13:22:52.974Z,3.55
2023-03-26T13:25:32.880Z,4.00
2023-03-26T13:28:08.794Z,4.30
2023-03-26T13:30:43.887Z,4.85
2023-03-26T13:33:38.443Z,4.60
2023-03-26T13:36:24.847Z,3.50
2023-03-26T13:39:13.284Z,3.88
2023-03-26T13:41:48.844Z,4.55
2023-03-26T13:44:49.614Z,3.42
2023-03-26T13:47:20.917Z,4.75
2023-03-26T13:49:49.299Z,3.58
2023-03-26T13:52:19.206Z,3.72
2023-03-26T13:54:52.310Z,3.88
2023-03-26T13:57:29.443Z,4.00
2023-03-26T14:00:06.819Z,5.38
2023-03-26T14:02:56.606Z,3.90
2023-03-26T14:05:39.611Z,5.03
2023-03-26T14:08:26.575Z,4.25
2023-03-26T14:11:11.027Z,3.90
2023-03-26T14:13:51.881Z,4.78
2023-03-26T14:16:41.311Z,4.38
2023-03-26T14:19:29.208Z,6.40
2023-03-26T14:22:18.352Z,4.25
2023-03-26T14:25:08.392Z,5.20
2023-03-26T14:27:41.143Z,4.15
2023-03-26T14:30:37.155Z,4.93
2023-03-26T14:33:27.345Z,3.95
2023-03-26T14:36:00.688Z,5.32
2023-03-26T14:38:39.341Z,4.47
2023-03-26T14:41:24.896Z,3.88
2023-03-26T14:44:25.960Z,4.70
2023-03-26T14:47:14.464Z,4.90
2023-03-26T14:49:51.922Z,4.55
2023-03-26T14:52:30.927Z,3.85
2023-03-26T14:54:58.934Z,4.05
2023-03-26T14:57:37.551Z,4.80
2023-03-26T15:00:42.933Z,4.22
2023-03-26T15:03:09.839Z,4.55
2023-03-26T15:05:46.451Z,3.90
2023-03-26T15:08:36.248Z,3.85
2023-03-26T15:11:18.179Z,4.68
2023-03-26T15:14:15.992Z,3.83
2023-03-26T15:17:01.282Z,3.33
2023-03-26T15:19:49.142Z,2.72
2023-03-26T15:22:53.943Z,3.67
2023-03-26T15:25:49.262Z,4.30
2023-03-26T15:28:47.144Z,3.38
2023-03-26T15:31:50.353Z,3.10
2023-03-26T15:34:42.421Z,4.85
2023-03-26T15:37:15.162Z,4.25
2023-03-26T15:40:13.041Z,2.53
2023-03-26T15:42:52.952Z,3.10
2023-03-26T15:45:46.311Z,3.05
2023-03-26T15:48:32.436Z,2.97
2023-03-26T15:51:13.186Z,2.05
2023-03-26T15:53:53.568Z,2.20
2023-03-26T15:56:25.608Z,2.30
2023-03-26T15:59:12.132Z,2.15
2023-03-26T16:01:46.318Z,3.38
2023-03-26T16:04:18.094Z,3.33
2023-03-26T16:07:03.645Z,2.60
2023-03-26T16:09:52.126Z,4.18
2023-03-26T16:12:45.646Z,2.83
2023-03-26T16:15:32.320Z,4.13
2023-03-26T16:18:19.239Z,3.13
2023-03-26T16:20:51.061Z,3.00
2023-03-26T16:24:03.001Z,3.15
2023-03-26T16:26:45.357Z,3.95
2023-03-26T16:29:18.723Z,3.55
2023-03-26T16:32:15.033Z,2.70
2023-03-26T16:35:10.241Z,2.78
2023-03-26T16:37:51.740Z,2.28
2023-03-26T16:40:18.712Z,2.40
2023-03-26T16:42:49.695Z,2.30
2023-03-26T16:45:27.161Z,2.97
2023-03-26T16:48:01.534Z,2.90
2023-03-26T16:50:43.708Z,3.08
2023-03-26T16:53:47.198Z,1.77
2023-03-26T16:56:21.436Z,2.65
2023-03-26T16:58:50.943Z,2.20
2023-03-26T17:01:21.395Z,2.53
2023-03-26T17:03:54.201Z,2.10
2023-03-26T17:06:45.854Z,2.30
2023-03-26T17:09:41.468Z,2.38
2023-03-26T17:12:29.128Z,2.80
2023-03-26T17:15:06.515Z,2.30
2023-03-26T17:17:36.872Z,1.85
2023-03-26T17:20:25.470Z,1.70
2023-03-26T17:22:58.663Z,1.67
2023-03-26T17:25:35.899Z,2.90
2023-03-26T17:28:17.696Z,2.38
2023-03-26T17:31:15.988Z,1.63
2023-03-26T17:33:43.158Z,1.95
2023-03-26T17:36:13.110Z,1.95
2023-03-26T17:38:39.993Z,1.80
2023-03-26T17:41:12.548Z,1.70
2023-03-26T17:43:46.592Z,2.22
2023-03-26T17:46:25.716Z,1.88
2023-03-26T17:49:14.271Z,1.80
2023-03-26T17:51:56.651Z,1.70
2023-03-26T17:54:29.283Z,2.17
2023-03-26T17:56:56.208Z,1.77
2023-03-26T17:59:25.556Z,1.88
2023-03-26T18:02:03.592Z,1.90
2023-03-26T18:04:37.947Z,1.77
2023-03-26T18:07:36.703Z,2.58
2023-03-26T18:10:16.932Z,2.10
2023-03-26T18:12:43.911Z,1.88
2023-03-26T18:15:22.670Z,2.40
2023-03-26T18:17:54.728Z,1.95
2023-03-26T18:20:28.823Z,2.00
2023-03-26T18:22:55.592Z,2.22
2023-03-26T18:25:28.709Z,1.98
2023-03-26T18:27:56.241Z,2.10
2023-03-26T18:30:23.540Z,2.35
2023-03-26T18:33:05.069Z,2.65
2023-03-26T18:35:43.455Z,3.78
2023-03-26T18:38:35.088Z,1.90
2023-03-26T18:41:03.296Z,1.88
2023-03-26T18:43:34.807Z,2.28
2023-03-26T18:46:03.429Z,2.08
2023-03-26T18:48:30.328Z,1.85
2023-03-26T18:51:01.147Z,2.65
2023-03-26T18:53:37.610Z,1.67
2023-03-26T18:56:38.976Z,1.95
2023-03-26T18:59:22.165Z,1.80
2023-03-26T19:01:48.971Z,2.00
2023-03-26T19:04:15.781Z,1.50
2023-03-26T19:06:42.563Z,2.75
2023-03-26T19:09:28.046Z,2.70
2023-03-26T19:11:57.900Z,2.00
2023-03-26T19:14:27.903Z,2.10
2023-03-26T19:16:59.520Z,1.70
2023-03-26T19:19:29.201Z,2.05
2023-03-26T19:24:25.374Z,2.10
2023-03-26T19:26:52.122Z,1.98
2023-03-26T19:29:24.479Z,2.03
2023-03-26T19:31:52.602Z,1.95
2023-03-26T19:34:38.554Z,1.85
2023-03-26T19:37:16.610Z,2.20
2023-03-26T19:39:44.798Z,2.42
2023-03-26T19:42:23.885Z,2.65
2023-03-26T19:44:51.590Z,1.65
2023-03-26T19:47:22.102Z,2.17
2023-03-26T19:50:01.274Z,2.15
2023-03-26T19:52:36.448Z,1.95
2023-03-26T19:55:04.439Z,2.33
2023-03-26T19:57:32.169Z,2.40
2023-03-26T19:59:59.122Z,2.28
2023-03-26T20:02:26.373Z,2.45
2023-03-26T20:04:53.285Z,2.60
2023-03-26T20:07:35.238Z,1.70
2023-03-26T20:10:05.575Z,1.92
2023-03-26T20:12:32.687Z,2.78
2023-03-26T20:14:59.450Z,2.60
2023-03-26T20:17:27.078Z,1.95
2023-03-26T20:19:54.365Z,2.65
2023-03-26T20:22:21.168Z,2.13
2023-03-26T20:24:47.943Z,2.40
2023-03-26T20:27:14.872Z,2.90
2023-03-26T20:29:42.274Z,1.75
2023-03-26T20:32:20.708Z,2.05
2023-03-26T20:34:49.667Z,2.08
2023-03-26T20:37:17.176Z,2.28
2023-03-26T20:39:43.925Z,2.55
2023-03-26T20:42:12.004Z,1.80
2023-03-26T20:44:39.468Z,2.00
2023-03-26T20:47:06.363Z,3.38
2023-03-26T20:49:33.276Z,1.80
2023-03-26T20:52:00.454Z,2.20
2023-03-26T20:54:27.696Z,3.17
2023-03-26T20:56:54.698Z,3.65
2023-03-26T20:59:26.702Z,2.25
2023-03-26T21:01:54.643Z,3.05
2023-03-26T21:04:21.748Z,1.88
2023-03-26T21:06:48.642Z,1.88
2023-03-26T21:09:17.759Z,2.20
2023-03-26T21:11:50.076Z,1.83
2023-03-26T21:14:24.821Z,2.38
2023-03-26T21:16:52.511Z,1.70
2023-03-26T21:19:20.133Z,1.75
2023-03-26T21:21:52.983Z,1.88
2023-03-26T21:24:58.287Z,1.52
2023-03-26T21:27:30.045Z,1.77
2023-03-26T21:29:58.198Z,1.90
2023-03-26T21:32:25.381Z,1.73
2023-03-26T21:34:58.571Z,2.00
2023-03-26T21:37:25.926Z,2.28
2023-03-26T21:39:52.823Z,2.25
2023-03-26T21:42:19.772Z,2.33
2023-03-26T21:44:46.872Z,2.15
2023-03-26T21:47:14.078Z,1.80
2023-03-26T21:49:41.268Z,1.83
2023-03-26T21:52:14.966Z,1.88
2023-03-26T21:54:43.095Z,2.30
2023-03-26T21:57:19.071Z,2.17
2023-03-26T21:59:51.824Z,1.90
2023-03-26T22:02:34.073Z,1.90
2023-03-26T22:05:02.389Z,1.95
2023-03-26T22:07:56.515Z,1.90
2023-03-26T22:10:23.466Z,2.03
2023-03-26T22:12:50.279Z,2.35
2023-03-26T22:15:18.205Z,2.88
2023-03-26T22:17:45.452Z,2.63
2023-03-26T22:20:15.083Z,1.90
2023-03-26T22:22:53.508Z,2.30
2023-03-26T22:25:21.711Z,1.50
2023-03-26T22:27:48.956Z,1.75
2023-03-26T22:30:16.407Z,1.80
2023-03-26T22:32:46.251Z,1.83
2023-03-26T22:35:13.096Z,1.67
2023-03-26T22:37:42.240Z,1.67
2023-03-26T22:40:10.335Z,2.30
2023-03-26T22:42:37.214Z,2.63
2023-03-26T22:45:04.233Z,2.75
2023-03-26T22:47:33.786Z,1.50
2023-03-26T22:52:28.166Z,1.48
2023-03-26T22:54:54.905Z,2.50
2023-03-26T22:57:22.810Z,2.00
2023-03-26T22:59:49.604Z,2.63
2023-03-26T23:02:16.678Z,2.10
2023-03-26T23:04:44.239Z,1.95
2023-03-26T23:07:11.286Z,2.30
2023-03-26T23:09:38.097Z,2.33
2023-03-26T23:12:05.036Z,3.55
2023-03-26T23:14:32.479Z,2.25
2023-03-26T23:16:59.399Z,2.72
2023-03-26T23:19:26.429Z,2.80
2023-03-26T23:21:53.847Z,2.13
2023-03-26T23:24:20.683Z,1.88
2023-03-26T23:26:51.015Z,1.40
2023-03-26T23:29:18.308Z,1.50
2023-03-26T23:31:45.184Z,1.75
2023-03-26T23:34:13.659Z,2.20
2023-03-26T23:36:41.788Z,2.05
2023-03-26T23:39:09.188Z,1.77
2023-03-26T23:41:36.818Z,2.30
2023-03-26T23:44:03.808Z,1.77
2023-03-26T23:46:33.144Z,2.42
2023-03-26T23:49:02.217Z,2.30
2023-03-26T23:51:30.365Z,2.72
2023-03-26T23:53:57.722Z,2.28
2023-03-26T23:56:24.493Z,1.55
2023-03-26T23:58:51.305Z,1.83
